sensor_id;sensor_type;location;lat;lon;timestamp;P1;durP1;ratioP1;P2;durP2;ratioP2
32138;SDS011;18644;48.700;9.210;2022-08-05T00:02:19;3.75;;;2.47;;
32138;SDS011;18644;48.700;9.210;2022-08-05T00:04:45;2.55;;;2.20;;
32138;SDS011;18644;48.700;9.210;2022-08-05T00:07:13;4.03;;;2.30;;
32138;SDS011;18644;48.700;9.210;2022-08-05T00:09:42;4.78;;;2.17;;
32138;SDS011;18644;48.700;9.210;2022-08-05T00:12:09;2.15;;;1.95;;
32138;SDS011;18644;48.700;9.210;2022-08-05T00:14:36;3.75;;;2.20;;
32138;SDS011;18644;48.700;9.210;2022-08-05T00:17:02;6.40;;;2.20;;
32138;SDS011;18644;48.700;9.210;2022-08-05T00:19:30;4.82;;;2.00;;
32138;SDS011;18644;48.700;9.210;2022-08-05T00:21:57;2.13;;;1.95;;
32138;SDS011;18644;48.700;9.210;2022-08-05T00:24:24;2.60;;;1.88;;
32138;SDS011;18644;48.700;9.210;2022-08-05T00:26:52;2.80;;;2.17;;
32138;SDS011;18644;48.700;9.210;2022-08-05T00:29:19;2.60;;;1.92;;
32138;SDS011;18644;48.700;9.210;2022-08-05T00:31:46;2.38;;;1.88;;
32138;SDS011;18644;48.700;9.210;2022-08-05T00:34:13;4.07;;;2.05;;
32138;SDS011;18644;48.700;9.210;2022-08-05T00:36:40;3.40;;;2.08;;
32138;SDS011;18644;48.700;9.210;2022-08-05T00:39:07;4.32;;;2.30;;
32138;SDS011;18644;48.700;9.210;2022-08-05T00:41:34;4.25;;;2.20;;
32138;SDS011;18644;48.700;9.210;2022-08-05T00:44:03;2.88;;;2.28;;
32138;SDS011;18644;48.700;9.210;2022-08-05T00:46:30;3.63;;;2.42;;
32138;SDS011;18644;48.700;9.210;2022-08-05T00:48:57;4.82;;;1.85;;
32138;SDS011;18644;48.700;9.210;2022-08-05T00:51:24;2.35;;;2.03;;
32138;SDS011;18644;48.700;9.210;2022-08-05T00:53:51;3.35;;;2.30;;
32138;SDS011;18644;48.700;9.210;2022-08-05T00:56:18;2.40;;;1.98;;
32138;SDS011;18644;48.700;9.210;2022-08-05T00:58:44;3.13;;;2.08;;
32138;SDS011;18644;48.700;9.210;2022-08-05T01:01:13;2.83;;;1.92;;
32138;SDS011;18644;48.700;9.210;2022-08-05T01:03:40;3.83;;;1.95;;
32138;SDS011;18644;48.700;9.210;2022-08-05T01:06:07;2.30;;;2.10;;
32138;SDS011;18644;48.700;9.210;2022-08-05T01:08:35;2.45;;;1.92;;
32138;SDS011;18644;48.700;9.210;2022-08-05T01:11:03;2.00;;;1.75;;
32138;SDS011;18644;48.700;9.210;2022-08-05T01:13:36;1.70;;;1.38;;
32138;SDS011;18644;48.700;9.210;2022-08-05T01:16:17;1.95;;;1.50;;
32138;SDS011;18644;48.700;9.210;2022-08-05T01:18:51;5.75;;;1.45;;
32138;SDS011;18644;48.700;9.210;2022-08-05T01:21:30;9.80;;;1.80;;
32138;SDS011;18644;48.700;9.210;2022-08-05T01:24:22;1.60;;;1.40;;
32138;SDS011;18644;48.700;9.210;2022-08-05T01:27:06;1.52;;;1.38;;
32138;SDS011;18644;48.700;9.210;2022-08-05T01:29:46;3.15;;;1.30;;
32138;SDS011;18644;48.700;9.210;2022-08-05T01:32:20;2.38;;;1.50;;
32138;SDS011;18644;48.700;9.210;2022-08-05T01:34:50;1.85;;;1.38;;
32138;SDS011;18644;48.700;9.210;2022-08-05T01:37:23;3.38;;;1.20;;
32138;SDS011;18644;48.700;9.210;2022-08-05T01:39:58;3.25;;;1.45;;
32138;SDS011;18644;48.700;9.210;2022-08-05T01:42:26;1.83;;;1.40;;
32138;SDS011;18644;48.700;9.210;2022-08-05T01:44:58;6.90;;;1.65;;
32138;SDS011;18644;48.700;9.210;2022-08-05T01:47:27;2.58;;;1.45;;
32138;SDS011;18644;48.700;9.210;2022-08-05T01:49:57;2.20;;;1.43;;
32138;SDS011;18644;48.700;9.210;2022-08-05T01:52:26;2.35;;;1.30;;
32138;SDS011;18644;48.700;9.210;2022-08-05T01:54:56;2.20;;;1.40;;
32138;SDS011;18644;48.700;9.210;2022-08-05T01:57:27;3.53;;;1.33;;
32138;SDS011;18644;48.700;9.210;2022-08-05T02:02:28;4.13;;;1.35;;
32138;SDS011;18644;48.700;9.210;2022-08-05T02:04:58;2.80;;;1.45;;
32138;SDS011;18644;48.700;9.210;2022-08-05T02:07:29;2.55;;;1.35;;
32138;SDS011;18644;48.700;9.210;2022-08-05T02:09:58;6.43;;;1.88;;
32138;SDS011;18644;48.700;9.210;2022-08-05T02:12:26;3.28;;;1.58;;
32138;SDS011;18644;48.700;9.210;2022-08-05T02:15:04;4.88;;;1.80;;
32138;SDS011;18644;48.700;9.210;2022-08-05T02:17:37;3.90;;;1.40;;
32138;SDS011;18644;48.700;9.210;2022-08-05T02:20:10;3.97;;;1.48;;
32138;SDS011;18644;48.700;9.210;2022-08-05T02:22:45;1.67;;;1.38;;
32138;SDS011;18644;48.700;9.210;2022-08-05T02:25:31;3.95;;;1.48;;
32138;SDS011;18644;48.700;9.210;2022-08-05T02:28:02;1.77;;;1.23;;
32138;SDS011;18644;48.700;9.210;2022-08-05T02:30:34;2.00;;;1.38;;
32138;SDS011;18644;48.700;9.210;2022-08-05T02:33:08;3.10;;;1.48;;
32138;SDS011;18644;48.700;9.210;2022-08-05T02:35:39;4.97;;;1.58;;
32138;SDS011;18644;48.700;9.210;2022-08-05T02:38:07;1.92;;;1.75;;
32138;SDS011;18644;48.700;9.210;2022-08-05T02:40:36;4.32;;;1.75;;
32138;SDS011;18644;48.700;9.210;2022-08-05T02:43:40;1.98;;;1.30;;
32138;SDS011;18644;48.700;9.210;2022-08-05T02:49:20;1.50;;;1.17;;
32138;SDS011;18644;48.700;9.210;2022-08-05T02:51:56;2.63;;;1.33;;
32138;SDS011;18644;48.700;9.210;2022-08-05T02:55:01;2.70;;;1.38;;
32138;SDS011;18644;48.700;9.210;2022-08-05T02:57:30;1.48;;;1.38;;
32138;SDS011;18644;48.700;9.210;2022-08-05T02:59:58;5.93;;;1.40;;
32138;SDS011;18644;48.700;9.210;2022-08-05T03:02:28;1.40;;;1.20;;
32138;SDS011;18644;48.700;9.210;2022-08-05T03:05:00;2.83;;;1.38;;
32138;SDS011;18644;48.700;9.210;2022-08-05T03:07:29;2.45;;;1.60;;
32138;SDS011;18644;48.700;9.210;2022-08-05T03:09:57;5.15;;;1.30;;
32138;SDS011;18644;48.700;9.210;2022-08-05T03:12:30;2.83;;;1.55;;
32138;SDS011;18644;48.700;9.210;2022-08-05T03:14:59;2.88;;;1.70;;
32138;SDS011;18644;48.700;9.210;2022-08-05T03:17:27;2.88;;;1.55;;
32138;SDS011;18644;48.700;9.210;2022-08-05T03:19:54;9.90;;;2.38;;
32138;SDS011;18644;48.700;9.210;2022-08-05T03:22:21;7.78;;;2.13;;
32138;SDS011;18644;48.700;9.210;2022-08-05T03:24:48;9.52;;;2.10;;
32138;SDS011;18644;48.700;9.210;2022-08-05T03:27:16;11.63;;;2.88;;
32138;SDS011;18644;48.700;9.210;2022-08-05T03:29:43;14.32;;;2.85;;
32138;SDS011;18644;48.700;9.210;2022-08-05T03:32:10;10.80;;;2.97;;
32138;SDS011;18644;48.700;9.210;2022-08-05T03:34:40;7.18;;;2.38;;
32138;SDS011;18644;48.700;9.210;2022-08-05T03:37:08;4.97;;;1.70;;
32138;SDS011;18644;48.700;9.210;2022-08-05T03:39:35;5.22;;;2.08;;
32138;SDS011;18644;48.700;9.210;2022-08-05T03:42:02;3.05;;;1.58;;
32138;SDS011;18644;48.700;9.210;2022-08-05T03:44:30;7.38;;;1.70;;
32138;SDS011;18644;48.700;9.210;2022-08-05T03:46:56;3.67;;;1.85;;
32138;SDS011;18644;48.700;9.210;2022-08-05T03:49:23;7.40;;;1.90;;
32138;SDS011;18644;48.700;9.210;2022-08-05T03:51:53;13.93;;;2.88;;
32138;SDS011;18644;48.700;9.210;2022-08-05T03:54:28;3.70;;;1.77;;
32138;SDS011;18644;48.700;9.210;2022-08-05T03:56:59;9.98;;;2.33;;
32138;SDS011;18644;48.700;9.210;2022-08-05T03:59:30;4.93;;;1.70;;
32138;SDS011;18644;48.700;9.210;2022-08-05T04:02:03;3.63;;;1.92;;
32138;SDS011;18644;48.700;9.210;2022-08-05T04:04:31;8.07;;;2.10;;
32138;SDS011;18644;48.700;9.210;2022-08-05T04:07:01;4.25;;;1.80;;
32138;SDS011;18644;48.700;9.210;2022-08-05T04:09:29;4.75;;;1.83;;
32138;SDS011;18644;48.700;9.210;2022-08-05T04:11:57;3.03;;;1.60;;
32138;SDS011;18644;48.700;9.210;2022-08-05T04:14:25;3.97;;;1.60;;
32138;SDS011;18644;48.700;9.210;2022-08-05T04:16:52;2.97;;;1.48;;
32138;SDS011;18644;48.700;9.210;2022-08-05T04:19:19;5.07;;;2.05;;
32138;SDS011;18644;48.700;9.210;2022-08-05T04:21:46;3.53;;;2.00;;
32138;SDS011;18644;48.700;9.210;2022-08-05T04:24:14;2.42;;;1.77;;
32138;SDS011;18644;48.700;9.210;2022-08-05T04:26:41;3.95;;;2.10;;
32138;SDS011;18644;48.700;9.210;2022-08-05T04:29:08;5.68;;;1.67;;
32138;SDS011;18644;48.700;9.210;2022-08-05T04:31:35;5.68;;;2.05;;
32138;SDS011;18644;48.700;9.210;2022-08-05T04:34:02;2.70;;;1.73;;
32138;SDS011;18644;48.700;9.210;2022-08-05T04:36:29;2.53;;;1.58;;
32138;SDS011;18644;48.700;9.210;2022-08-05T04:38:59;2.88;;;1.85;;
32138;SDS011;18644;48.700;9.210;2022-08-05T04:41:29;2.83;;;1.60;;
32138;SDS011;18644;48.700;9.210;2022-08-05T04:43:56;4.07;;;1.55;;
32138;SDS011;18644;48.700;9.210;2022-08-05T04:46:23;4.20;;;1.60;;
32138;SDS011;18644;48.700;9.210;2022-08-05T04:48:50;4.63;;;2.33;;
32138;SDS011;18644;48.700;9.210;2022-08-05T04:51:16;2.83;;;2.15;;
32138;SDS011;18644;48.700;9.210;2022-08-05T04:53:43;4.80;;;1.67;;
32138;SDS011;18644;48.700;9.210;2022-08-05T04:56:10;2.63;;;1.77;;
32138;SDS011;18644;48.700;9.210;2022-08-05T04:58:40;3.80;;;1.90;;
32138;SDS011;18644;48.700;9.210;2022-08-05T05:01:07;3.10;;;1.90;;
32138;SDS011;18644;48.700;9.210;2022-08-05T05:03:34;3.90;;;1.80;;
32138;SDS011;18644;48.700;9.210;2022-08-05T05:06:00;2.33;;;2.00;;
32138;SDS011;18644;48.700;9.210;2022-08-05T05:08:27;2.10;;;1.77;;
32138;SDS011;18644;48.700;9.210;2022-08-05T05:10:54;1.90;;;1.75;;
32138;SDS011;18644;48.700;9.210;2022-08-05T05:13:21;2.58;;;1.77;;
32138;SDS011;18644;48.700;9.210;2022-08-05T05:15:49;3.67;;;1.67;;
32138;SDS011;18644;48.700;9.210;2022-08-05T05:18:16;2.65;;;1.60;;
32138;SDS011;18644;48.700;9.210;2022-08-05T05:20:44;6.15;;;1.83;;
32138;SDS011;18644;48.700;9.210;2022-08-05T05:23:12;2.42;;;1.90;;
32138;SDS011;18644;48.700;9.210;2022-08-05T05:25:39;1.55;;;1.40;;
32138;SDS011;18644;48.700;9.210;2022-08-05T05:28:07;5.60;;;1.70;;
32138;SDS011;18644;48.700;9.210;2022-08-05T05:30:35;3.10;;;1.65;;
32138;SDS011;18644;48.700;9.210;2022-08-05T05:33:04;5.15;;;2.05;;
32138;SDS011;18644;48.700;9.210;2022-08-05T05:35:33;1.95;;;1.70;;
32138;SDS011;18644;48.700;9.210;2022-08-05T05:38:01;3.72;;;1.75;;
32138;SDS011;18644;48.700;9.210;2022-08-05T05:40:30;6.35;;;1.65;;
32138;SDS011;18644;48.700;9.210;2022-08-05T05:42:57;6.38;;;1.80;;
32138;SDS011;18644;48.700;9.210;2022-08-05T05:45:25;4.07;;;1.85;;
32138;SDS011;18644;48.700;9.210;2022-08-05T05:47:52;6.45;;;2.00;;
32138;SDS011;18644;48.700;9.210;2022-08-05T05:50:20;6.90;;;3.15;;
32138;SDS011;18644;48.700;9.210;2022-08-05T05:52:47;5.93;;;2.30;;
32138;SDS011;18644;48.700;9.210;2022-08-05T05:55:15;3.60;;;2.00;;
32138;SDS011;18644;48.700;9.210;2022-08-05T05:57:43;6.10;;;1.90;;
32138;SDS011;18644;48.700;9.210;2022-08-05T06:00:13;6.35;;;2.10;;
32138;SDS011;18644;48.700;9.210;2022-08-05T06:02:42;3.70;;;1.83;;
32138;SDS011;18644;48.700;9.210;2022-08-05T06:05:11;3.90;;;1.73;;
32138;SDS011;18644;48.700;9.210;2022-08-05T06:07:41;5.28;;;2.08;;
32138;SDS011;18644;48.700;9.210;2022-08-05T06:10:09;2.50;;;2.08;;
32138;SDS011;18644;48.700;9.210;2022-08-05T06:12:36;4.65;;;2.38;;
32138;SDS011;18644;48.700;9.210;2022-08-05T06:15:04;3.53;;;2.42;;
32138;SDS011;18644;48.700;9.210;2022-08-05T06:17:33;4.28;;;1.70;;
32138;SDS011;18644;48.700;9.210;2022-08-05T06:20:01;6.18;;;2.40;;
32138;SDS011;18644;48.700;9.210;2022-08-05T06:22:30;6.85;;;1.75;;
32138;SDS011;18644;48.700;9.210;2022-08-05T06:25:01;4.75;;;1.85;;
32138;SDS011;18644;48.700;9.210;2022-08-05T06:27:29;4.43;;;2.22;;
32138;SDS011;18644;48.700;9.210;2022-08-05T06:29:56;2.72;;;1.63;;
32138;SDS011;18644;48.700;9.210;2022-08-05T06:32:23;2.92;;;2.38;;
32138;SDS011;18644;48.700;9.210;2022-08-05T06:34:50;2.25;;;1.92;;
32138;SDS011;18644;48.700;9.210;2022-08-05T06:37:17;5.63;;;1.88;;
32138;SDS011;18644;48.700;9.210;2022-08-05T06:39:44;2.70;;;2.00;;
32138;SDS011;18644;48.700;9.210;2022-08-05T06:42:12;4.13;;;2.20;;
32138;SDS011;18644;48.700;9.210;2022-08-05T06:44:40;5.45;;;2.42;;
32138;SDS011;18644;48.700;9.210;2022-08-05T06:47:07;3.10;;;1.77;;
32138;SDS011;18644;48.700;9.210;2022-08-05T06:49:35;2.72;;;1.90;;
32138;SDS011;18644;48.700;9.210;2022-08-05T06:52:02;3.97;;;1.77;;
32138;SDS011;18644;48.700;9.210;2022-08-05T06:54:29;3.70;;;1.85;;
32138;SDS011;18644;48.700;9.210;2022-08-05T06:56:56;2.42;;;1.60;;
32138;SDS011;18644;48.700;9.210;2022-08-05T06:59:25;3.80;;;1.50;;
32138;SDS011;18644;48.700;9.210;2022-08-05T07:01:52;4.55;;;1.83;;
32138;SDS011;18644;48.700;9.210;2022-08-05T07:04:18;2.47;;;1.65;;
32138;SDS011;18644;48.700;9.210;2022-08-05T07:06:45;2.92;;;1.42;;
32138;SDS011;18644;48.700;9.210;2022-08-05T07:09:12;9.27;;;1.67;;
32138;SDS011;18644;48.700;9.210;2022-08-05T07:11:39;2.22;;;1.38;;
32138;SDS011;18644;48.700;9.210;2022-08-05T07:14:06;1.88;;;1.58;;
32138;SDS011;18644;48.700;9.210;2022-08-05T07:16:51;1.50;;;1.40;;
32138;SDS011;18644;48.700;9.210;2022-08-05T07:19:23;3.80;;;1.88;;
32138;SDS011;18644;48.700;9.210;2022-08-05T07:21:51;2.28;;;1.60;;
32138;SDS011;18644;48.700;9.210;2022-08-05T07:24:18;2.40;;;1.40;;
32138;SDS011;18644;48.700;9.210;2022-08-05T07:26:46;1.25;;;1.15;;
32138;SDS011;18644;48.700;9.210;2022-08-05T07:29:13;3.20;;;1.35;;
32138;SDS011;18644;48.700;9.210;2022-08-05T07:31:40;2.53;;;1.50;;
32138;SDS011;18644;48.700;9.210;2022-08-05T07:34:09;2.58;;;1.55;;
32138;SDS011;18644;48.700;9.210;2022-08-05T07:36:36;1.48;;;1.13;;
32138;SDS011;18644;48.700;9.210;2022-08-05T07:39:04;1.98;;;1.42;;
32138;SDS011;18644;48.700;9.210;2022-08-05T07:41:33;2.45;;;1.10;;
32138;SDS011;18644;48.700;9.210;2022-08-05T07:44:00;2.72;;;1.40;;
32138;SDS011;18644;48.700;9.210;2022-08-05T07:46:29;1.75;;;1.10;;
32138;SDS011;18644;48.700;9.210;2022-08-05T07:48:57;1.40;;;1.30;;
32138;SDS011;18644;48.700;9.210;2022-08-05T07:51:28;5.25;;;1.30;;
32138;SDS011;18644;48.700;9.210;2022-08-05T07:53:55;1.65;;;1.50;;
32138;SDS011;18644;48.700;9.210;2022-08-05T07:56:21;2.05;;;1.10;;
32138;SDS011;18644;48.700;9.210;2022-08-05T07:58:48;1.30;;;1.20;;
32138;SDS011;18644;48.700;9.210;2022-08-05T08:01:15;1.40;;;1.30;;
32138;SDS011;18644;48.700;9.210;2022-08-05T08:03:42;1.38;;;1.27;;
32138;SDS011;18644;48.700;9.210;2022-08-05T08:06:09;1.45;;;1.20;;
32138;SDS011;18644;48.700;9.210;2022-08-05T08:08:37;2.17;;;1.20;;
32138;SDS011;18644;48.700;9.210;2022-08-05T08:11:04;4.30;;;1.10;;
32138;SDS011;18644;48.700;9.210;2022-08-05T08:13:31;2.10;;;1.30;;
32138;SDS011;18644;48.700;9.210;2022-08-05T08:15:58;2.92;;;1.20;;
32138;SDS011;18644;48.700;9.210;2022-08-05T08:18:25;1.33;;;1.00;;
32138;SDS011;18644;48.700;9.210;2022-08-05T08:20:52;2.10;;;1.30;;
32138;SDS011;18644;48.700;9.210;2022-08-05T08:23:18;1.20;;;1.10;;
32138;SDS011;18644;48.700;9.210;2022-08-05T08:25:47;1.10;;;0.98;;
32138;SDS011;18644;48.700;9.210;2022-08-05T08:28:14;2.55;;;1.30;;
32138;SDS011;18644;48.700;9.210;2022-08-05T08:30:41;1.20;;;1.10;;
32138;SDS011;18644;48.700;9.210;2022-08-05T08:33:08;0.90;;;0.90;;
32138;SDS011;18644;48.700;9.210;2022-08-05T08:35:36;1.73;;;1.20;;
32138;SDS011;18644;48.700;9.210;2022-08-05T08:38:04;1.73;;;1.10;;
32138;SDS011;18644;48.700;9.210;2022-08-05T08:40:31;1.40;;;1.00;;
32138;SDS011;18644;48.700;9.210;2022-08-05T08:43:01;1.20;;;1.08;;
32138;SDS011;18644;48.700;9.210;2022-08-05T08:45:29;1.15;;;1.05;;
32138;SDS011;18644;48.700;9.210;2022-08-05T08:47:58;1.08;;;0.88;;
32138;SDS011;18644;48.700;9.210;2022-08-05T08:50:29;0.95;;;0.93;;
32138;SDS011;18644;48.700;9.210;2022-08-05T08:52:59;1.25;;;1.15;;
32138;SDS011;18644;48.700;9.210;2022-08-05T08:55:29;1.20;;;1.10;;
32138;SDS011;18644;48.700;9.210;2022-08-05T08:57:57;1.80;;;0.75;;
32138;SDS011;18644;48.700;9.210;2022-08-05T09:00:27;1.00;;;0.90;;
32138;SDS011;18644;48.700;9.210;2022-08-05T09:02:54;2.15;;;1.00;;
32138;SDS011;18644;48.700;9.210;2022-08-05T09:05:22;1.08;;;0.98;;
32138;SDS011;18644;48.700;9.210;2022-08-05T09:07:49;1.27;;;1.05;;
32138;SDS011;18644;48.700;9.210;2022-08-05T09:10:18;1.13;;;1.02;;
32138;SDS011;18644;48.700;9.210;2022-08-05T09:12:46;0.80;;;0.80;;
32138;SDS011;18644;48.700;9.210;2022-08-05T09:15:13;0.95;;;0.82;;
32138;SDS011;18644;48.700;9.210;2022-08-05T09:17:42;1.73;;;1.15;;
32138;SDS011;18644;48.700;9.210;2022-08-05T09:20:09;1.13;;;0.88;;
32138;SDS011;18644;48.700;9.210;2022-08-05T09:25:37;1.48;;;1.10;;
32138;SDS011;18644;48.700;9.210;2022-08-05T09:28:11;2.45;;;1.00;;
32138;SDS011;18644;48.700;9.210;2022-08-05T09:30:52;1.10;;;1.00;;
32138;SDS011;18644;48.700;9.210;2022-08-05T09:33:24;0.93;;;0.82;;
32138;SDS011;18644;48.700;9.210;2022-08-05T09:35:51;1.55;;;0.90;;
32138;SDS011;18644;48.700;9.210;2022-08-05T09:38:23;0.90;;;0.90;;
32138;SDS011;18644;48.700;9.210;2022-08-05T09:40:51;0.73;;;0.73;;
32138;SDS011;18644;48.700;9.210;2022-08-05T09:43:27;0.90;;;0.80;;
32138;SDS011;18644;48.700;9.210;2022-08-05T09:45:57;1.00;;;0.95;;
32138;SDS011;18644;48.700;9.210;2022-08-05T09:48:26;0.88;;;0.88;;
32138;SDS011;18644;48.700;9.210;2022-08-05T09:50:55;1.33;;;1.10;;
32138;SDS011;18644;48.700;9.210;2022-08-05T09:53:24;2.08;;;1.10;;
32138;SDS011;18644;48.700;9.210;2022-08-05T09:55:52;1.25;;;0.98;;
32138;SDS011;18644;48.700;9.210;2022-08-05T09:58:21;2.63;;;1.42;;
32138;SDS011;18644;48.700;9.210;2022-08-05T10:00:53;1.08;;;1.08;;
32138;SDS011;18644;48.700;9.210;2022-08-05T10:03:26;2.03;;;1.20;;
32138;SDS011;18644;48.700;9.210;2022-08-05T10:06:00;2.40;;;1.00;;
32138;SDS011;18644;48.700;9.210;2022-08-05T10:08:33;0.95;;;0.90;;
32138;SDS011;18644;48.700;9.210;2022-08-05T10:11:02;0.80;;;0.80;;
32138;SDS011;18644;48.700;9.210;2022-08-05T10:13:31;1.67;;;0.85;;
32138;SDS011;18644;48.700;9.210;2022-08-05T10:16:01;1.35;;;1.00;;
32138;SDS011;18644;48.700;9.210;2022-08-05T10:18:30;1.67;;;1.02;;
32138;SDS011;18644;48.700;9.210;2022-08-05T10:20:58;0.90;;;0.90;;
32138;SDS011;18644;48.700;9.210;2022-08-05T10:23:31;1.08;;;0.90;;
32138;SDS011;18644;48.700;9.210;2022-08-05T10:26:00;1.45;;;1.00;;
32138;SDS011;18644;48.700;9.210;2022-08-05T10:28:29;1.20;;;1.10;;
32138;SDS011;18644;48.700;9.210;2022-08-05T10:30:57;1.10;;;1.00;;
32138;SDS011;18644;48.700;9.210;2022-08-05T10:33:26;1.35;;;1.08;;
32138;SDS011;18644;48.700;9.210;2022-08-05T10:35:58;1.67;;;0.98;;
32138;SDS011;18644;48.700;9.210;2022-08-05T10:40:57;0.80;;;0.80;;
32138;SDS011;18644;48.700;9.210;2022-08-05T10:43:35;1.73;;;1.00;;
32138;SDS011;18644;48.700;9.210;2022-08-05T10:46:16;4.13;;;0.90;;
32138;SDS011;18644;48.700;9.210;2022-08-05T10:48:47;1.17;;;1.13;;
32138;SDS011;18644;48.700;9.210;2022-08-05T10:51:15;1.10;;;1.00;;
32138;SDS011;18644;48.700;9.210;2022-08-05T10:53:51;0.90;;;0.90;;
32138;SDS011;18644;48.700;9.210;2022-08-05T10:56:19;6.93;;;1.40;;
32138;SDS011;18644;48.700;9.210;2022-08-05T10:58:49;1.10;;;1.00;;
32138;SDS011;18644;48.700;9.210;2022-08-05T11:01:32;3.35;;;1.50;;
32138;SDS011;18644;48.700;9.210;2022-08-05T11:04:02;1.08;;;0.98;;
32138;SDS011;18644;48.700;9.210;2022-08-05T11:06:33;1.75;;;1.00;;
32138;SDS011;18644;48.700;9.210;2022-08-05T11:09:35;10.15;;;1.50;;
32138;SDS011;18644;48.700;9.210;2022-08-05T11:12:04;0.90;;;0.90;;
32138;SDS011;18644;48.700;9.210;2022-08-05T11:15:11;8.55;;;1.42;;
32138;SDS011;18644;48.700;9.210;2022-08-05T11:17:44;1.35;;;1.25;;
32138;SDS011;18644;48.700;9.210;2022-08-05T11:20:32;1.95;;;1.05;;
32138;SDS011;18644;48.700;9.210;2022-08-05T11:23:24;1.33;;;1.20;;
32138;SDS011;18644;48.700;9.210;2022-08-05T11:26:00;1.45;;;0.77;;
32138;SDS011;18644;48.700;9.210;2022-08-05T11:31:21;2.20;;;1.10;;
32138;SDS011;18644;48.700;9.210;2022-08-05T11:34:00;1.20;;;1.10;;
32138;SDS011;18644;48.700;9.210;2022-08-05T11:36:47;1.15;;;1.05;;
32138;SDS011;18644;48.700;9.210;2022-08-05T11:39:19;1.05;;;1.05;;
32138;SDS011;18644;48.700;9.210;2022-08-05T11:42:15;0.80;;;0.80;;
32138;SDS011;18644;48.700;9.210;2022-08-05T11:44:49;2.28;;;0.95;;
32138;SDS011;18644;48.700;9.210;2022-08-05T11:47:19;1.63;;;0.90;;
32138;SDS011;18644;48.700;9.210;2022-08-05T11:49:49;1.45;;;1.23;;
32138;SDS011;18644;48.700;9.210;2022-08-05T11:52:23;0.98;;;0.98;;
32138;SDS011;18644;48.700;9.210;2022-08-05T11:54:51;1.00;;;0.90;;
32138;SDS011;18644;48.700;9.210;2022-08-05T11:57:18;1.67;;;1.15;;
32138;SDS011;18644;48.700;9.210;2022-08-05T11:59:45;2.65;;;1.20;;
32138;SDS011;18644;48.700;9.210;2022-08-05T12:02:12;1.83;;;1.15;;
32138;SDS011;18644;48.700;9.210;2022-08-05T12:04:40;1.15;;;1.05;;
32138;SDS011;18644;48.700;9.210;2022-08-05T12:07:09;1.20;;;1.10;;
32138;SDS011;18644;48.700;9.210;2022-08-05T12:09:39;1.70;;;0.88;;
32138;SDS011;18644;48.700;9.210;2022-08-05T12:12:10;1.00;;;0.90;;
32138;SDS011;18644;48.700;9.210;2022-08-05T12:14:38;0.93;;;0.93;;
32138;SDS011;18644;48.700;9.210;2022-08-05T12:17:08;2.05;;;1.00;;
32138;SDS011;18644;48.700;9.210;2022-08-05T12:19:39;2.00;;;0.90;;
32138;SDS011;18644;48.700;9.210;2022-08-05T12:22:07;0.85;;;0.80;;
32138;SDS011;18644;48.700;9.210;2022-08-05T12:24:34;0.90;;;0.90;;
32138;SDS011;18644;48.700;9.210;2022-08-05T12:27:08;1.50;;;1.10;;
32138;SDS011;18644;48.700;9.210;2022-08-05T12:29:36;1.73;;;1.05;;
32138;SDS011;18644;48.700;9.210;2022-08-05T12:32:03;1.10;;;0.80;;
32138;SDS011;18644;48.700;9.210;2022-08-05T12:34:32;0.90;;;0.90;;
32138;SDS011;18644;48.700;9.210;2022-08-05T12:37:02;1.58;;;0.85;;
32138;SDS011;18644;48.700;9.210;2022-08-05T12:39:35;2.35;;;1.10;;
32138;SDS011;18644;48.700;9.210;2022-08-05T12:42:09;1.20;;;1.10;;
32138;SDS011;18644;48.700;9.210;2022-08-05T12:44:39;0.90;;;0.90;;
32138;SDS011;18644;48.700;9.210;2022-08-05T12:47:06;1.20;;;1.10;;
32138;SDS011;18644;48.700;9.210;2022-08-05T12:49:40;1.38;;;1.27;;
32138;SDS011;18644;48.700;9.210;2022-08-05T12:52:12;1.30;;;1.20;;
32138;SDS011;18644;48.700;9.210;2022-08-05T12:54:41;1.15;;;1.00;;
32138;SDS011;18644;48.700;9.210;2022-08-05T12:57:11;1.00;;;1.00;;
32138;SDS011;18644;48.700;9.210;2022-08-05T12:59:42;0.98;;;0.98;;
32138;SDS011;18644;48.700;9.210;2022-08-05T13:02:12;1.00;;;1.00;;
32138;SDS011;18644;48.700;9.210;2022-08-05T13:04:44;1.20;;;1.10;;
32138;SDS011;18644;48.700;9.210;2022-08-05T13:07:11;0.85;;;0.85;;
32138;SDS011;18644;48.700;9.210;2022-08-05T13:09:43;1.10;;;0.98;;
32138;SDS011;18644;48.700;9.210;2022-08-05T13:12:17;0.90;;;0.90;;
32138;SDS011;18644;48.700;9.210;2022-08-05T13:14:47;1.13;;;0.95;;
32138;SDS011;18644;48.700;9.210;2022-08-05T13:17:17;1.20;;;1.10;;
32138;SDS011;18644;48.700;9.210;2022-08-05T13:19:56;1.10;;;1.00;;
32138;SDS011;18644;48.700;9.210;2022-08-05T13:22:25;2.33;;;0.93;;
32138;SDS011;18644;48.700;9.210;2022-08-05T13:24:52;1.38;;;1.02;;
32138;SDS011;18644;48.700;9.210;2022-08-05T13:27:28;1.85;;;1.40;;
32138;SDS011;18644;48.700;9.210;2022-08-05T13:29:57;0.90;;;0.90;;
32138;SDS011;18644;48.700;9.210;2022-08-05T13:32:24;4.88;;;1.30;;
32138;SDS011;18644;48.700;9.210;2022-08-05T13:34:52;0.85;;;0.85;;
32138;SDS011;18644;48.700;9.210;2022-08-05T13:37:19;1.00;;;1.00;;
32138;SDS011;18644;48.700;9.210;2022-08-05T13:39:48;2.05;;;1.08;;
32138;SDS011;18644;48.700;9.210;2022-08-05T13:42:17;1.35;;;1.27;;
32138;SDS011;18644;48.700;9.210;2022-08-05T13:44:46;1.65;;;1.20;;
32138;SDS011;18644;48.700;9.210;2022-08-05T13:47:16;1.70;;;1.23;;
32138;SDS011;18644;48.700;9.210;2022-08-05T13:49:44;1.15;;;1.05;;
32138;SDS011;18644;48.700;9.210;2022-08-05T13:52:11;1.17;;;1.17;;
32138;SDS011;18644;48.700;9.210;2022-08-05T13:54:39;1.20;;;1.10;;
32138;SDS011;18644;48.700;9.210;2022-08-05T13:57:07;3.17;;;0.90;;
32138;SDS011;18644;48.700;9.210;2022-08-05T13:59:34;1.50;;;1.35;;
32138;SDS011;18644;48.700;9.210;2022-08-05T14:02:04;1.67;;;1.48;;
32138;SDS011;18644;48.700;9.210;2022-08-05T14:04:32;1.07;;;1.03;;
32138;SDS011;18644;48.700;9.210;2022-08-05T14:07:19;1.80;;;1.02;;
32138;SDS011;18644;48.700;9.210;2022-08-05T14:09:48;1.10;;;1.00;;
32138;SDS011;18644;48.700;9.210;2022-08-05T14:12:15;1.23;;;1.13;;
32138;SDS011;18644;48.700;9.210;2022-08-05T14:14:42;1.05;;;0.98;;
32138;SDS011;18644;48.700;9.210;2022-08-05T14:17:10;1.30;;;1.17;;
32138;SDS011;18644;48.700;9.210;2022-08-05T14:19:38;2.03;;;1.60;;
32138;SDS011;18644;48.700;9.210;2022-08-05T14:22:05;1.48;;;1.20;;
32138;SDS011;18644;48.700;9.210;2022-08-05T14:24:32;1.20;;;1.10;;
32138;SDS011;18644;48.700;9.210;2022-08-05T14:26:59;1.10;;;1.00;;
32138;SDS011;18644;48.700;9.210;2022-08-05T14:29:26;1.88;;;0.90;;
32138;SDS011;18644;48.700;9.210;2022-08-05T14:31:53;3.20;;;1.17;;
32138;SDS011;18644;48.700;9.210;2022-08-05T14:34:22;1.23;;;1.08;;
32138;SDS011;18644;48.700;9.210;2022-08-05T14:36:49;1.25;;;1.10;;
32138;SDS011;18644;48.700;9.210;2022-08-05T14:39:15;1.10;;;1.00;;
32138;SDS011;18644;48.700;9.210;2022-08-05T14:41:43;1.02;;;0.93;;
32138;SDS011;18644;48.700;9.210;2022-08-05T14:44:09;1.10;;;1.00;;
32138;SDS011;18644;48.700;9.210;2022-08-05T14:46:37;2.88;;;1.08;;
32138;SDS011;18644;48.700;9.210;2022-08-05T14:49:04;1.05;;;0.98;;
32138;SDS011;18644;48.700;9.210;2022-08-05T14:51:33;0.98;;;0.88;;
32138;SDS011;18644;48.700;9.210;2022-08-05T14:54:01;1.48;;;1.13;;
32138;SDS011;18644;48.700;9.210;2022-08-05T14:56:28;1.23;;;1.13;;
32138;SDS011;18644;48.700;9.210;2022-08-05T14:58:55;1.70;;;1.00;;
32138;SDS011;18644;48.700;9.210;2022-08-05T15:01:22;2.05;;;0.80;;
32138;SDS011;18644;48.700;9.210;2022-08-05T15:03:49;1.42;;;1.27;;
32138;SDS011;18644;48.700;9.210;2022-08-05T15:06:16;1.52;;;1.30;;
32138;SDS011;18644;48.700;9.210;2022-08-05T15:08:44;1.27;;;1.17;;
32138;SDS011;18644;48.700;9.210;2022-08-05T15:11:11;1.40;;;1.30;;
32138;SDS011;18644;48.700;9.210;2022-08-05T15:13:38;1.13;;;1.02;;
32138;SDS011;18644;48.700;9.210;2022-08-05T15:16:05;1.63;;;1.20;;
32138;SDS011;18644;48.700;9.210;2022-08-05T15:18:32;1.70;;;1.15;;